Time;durP1;ratioP1;P1;durP2;ratioP2;P2;SDS_P1;SDS_P2;PMS_P1;PMS_P2;Temp;Humidity;BMP_temperature;BMP_pressure;BME280_temperature;BME280_humidity;BME280_pressure;Samples;Min_cycle;Max_cycle;Signal;HPM_P1;HPM_P2
2022/10/09 00:00:31;;;;;;;;;12.00;9.75;;;;;15.06;41.43;101901.00;4969251;28;45395;-56
2022/10/09 00:02:56;;;;;;;;;10.50;8.75;;;;;15.04;41.26;101901.94;4967799;28;45404;-55
2022/10/09 00:05:25;;;;;;;;;12.00;10.25;;;;;15.04;41.25;101894.00;4961866;28;45334;-55
2022/10/09 00:07:50;;;;;;;;;11.75;9.00;;;;;15.01;41.68;101897.56;4976929;28;45470;-53
2022/10/09 00:10:16;;;;;;;;;10.50;9.00;;;;;14.99;41.17;101894.06;4962197;28;45245;-54
2022/10/09 00:12:41;;;;;;;;;9.50;9.50;;;;;14.98;41.21;101899.38;4961846;28;45156;-55
2022/10/09 00:15:07;;;;;;;;;7.50;6.50;;;;;14.96;41.34;101894.09;4961789;28;46142;-55
2022/10/09 00:17:32;;;;;;;;;12.50;9.50;;;;;14.94;41.49;101896.78;4961713;28;45277;-55
2022/10/09 00:19:57;;;;;;;;;10.50;9.25;;;;;14.93;41.57;101899.44;4961948;28;45334;-56
2022/10/09 00:22:23;;;;;;;;;10.50;10.00;;;;;14.90;41.55;101889.75;4960498;28;45354;-55
2022/10/09 00:24:48;;;;;;;;;9.75;9.75;;;;;14.88;41.34;101882.75;4961626;28;45795;-55
2022/10/09 00:27:13;;;;;;;;;8.25;6.50;;;;;14.87;41.29;101894.25;4961715;28;45368;-55
2022/10/09 00:29:39;;;;;;;;;9.25;8.75;;;;;14.84;41.46;101894.28;4961676;28;45338;-55
2022/10/09 00:32:04;;;;;;;;;11.25;10.00;;;;;14.82;41.98;101890.75;4961447;28;45372;-55
2022/10/09 00:34:30;;;;;;;;;11.75;8.75;;;;;14.80;41.46;101893.44;4961426;28;45404;-55
2022/10/09 00:36:55;;;;;;;;;11.50;9.50;;;;;14.77;41.71;101891.72;4960136;28;45410;-55
2022/10/09 00:39:20;;;;;;;;;10.00;9.25;;;;;14.77;41.64;101890.84;4961600;28;45307;-56
2022/10/09 00:41:46;;;;;;;;;11.25;10.75;;;;;14.74;41.72;101890.88;4961598;28;45346;-55
2022/10/09 00:44:48;;;;;;;;;9.75;8.75;;;;;14.72;41.64;101890.03;4976157;28;45362;-55
2022/10/09 00:47:28;;;;;;;;;10.25;9.50;;;;;14.70;41.64;101886.53;4959367;28;45327;-55
2022/10/09 00:50:01;;;;;;;;;11.50;9.75;;;;;14.68;41.93;101880.38;4961515;28;45240;-55
2022/10/09 00:52:27;;;;;;;;;10.00;9.00;;;;;14.65;41.92;101885.72;4960840;28;45394;-55
2022/10/09 00:54:54;;;;;;;;;11.75;9.00;;;;;14.63;42.33;101883.91;4961149;28;45303;-55
2022/10/09 00:57:20;;;;;;;;;11.75;10.25;;;;;14.61;41.93;101885.69;4961307;28;45211;-55
2022/10/09 00:59:46;;;;;;;;;11.75;10.50;;;;;14.59;42.32;101883.97;4961355;28;45283;-55
2022/10/09 01:02:11;;;;;;;;;11.75;11.25;;;;;14.57;42.26;101885.78;4961106;28;45601;-54
2022/10/09 01:04:36;;;;;;;;;11.00;10.00;;;;;14.55;42.39;101882.28;4961076;28;46117;-55
2022/10/09 01:07:11;;;;;;;;;12.00;10.00;;;;;14.51;42.00;101876.13;4959653;28;45268;-55
2022/10/09 01:09:56;;;;;;;;;13.00;10.25;;;;;14.51;42.46;101877.91;4961220;28;45265;-54
2022/10/09 01:12:32;;;;;;;;;13.25;12.00;;;;;14.47;42.38;101879.72;4960944;28;45232;-55
2022/10/09 01:15:18;;;;;;;;;11.75;10.50;;;;;14.45;42.48;101870.94;4960605;28;45468;-54
2022/10/09 01:18:01;;;;;;;;;12.25;8.25;;;;;14.43;42.35;101867.44;4960593;28;45373;-56
2022/10/09 01:20:39;;;;;;;;;12.25;10.25;;;;;14.40;42.32;101856.88;4961052;28;45421;-55
2022/10/09 01:23:16;;;;;;;;;13.00;10.00;;;;;14.36;42.44;101853.41;4960665;28;45406;-55
2022/10/09 01:26:01;;;;;;;;;9.25;8.25;;;;;14.30;42.30;101841.16;4960560;28;46152;-55
2022/10/09 01:28:29;;;;;;;;;10.25;9.25;;;;;14.32;42.45;101853.47;4959291;28;45409;-55
2022/10/09 01:31:01;;;;;;;;;13.00;11.00;;;;;14.29;42.37;101844.69;4960689;28;45247;-54
2022/10/09 01:33:29;;;;;;;;;10.75;10.75;;;;;14.28;42.71;101844.69;4960508;28;45326;-55
2022/10/09 01:35:55;;;;;;;;;7.50;7.50;;;;;14.24;42.59;101843.00;4960271;28;46211;-55
2022/10/09 01:38:23;;;;;;;;;10.75;10.75;;;;;14.22;42.52;101829.78;4960767;28;45236;-56
2022/10/09 01:40:51;;;;;;;;;11.25;9.50;;;;;14.17;42.62;101823.66;4960550;28;45425;-55
2022/10/09 01:43:16;;;;;;;;;13.25;10.50;;;;;14.16;42.77;101826.34;4960571;28;45464;-56
2022/10/09 01:45:43;;;;;;;;;11.00;11.00;;;;;14.16;42.66;101816.63;4958985;28;47127;-55
2022/10/09 01:48:16;;;;;;;;;9.75;9.00;;;;;14.13;42.52;101806.97;4960590;28;45219;-55
2022/10/09 01:50:51;;;;;;;;;5.50;5.50;;;;;14.13;42.97;101806.09;4960613;28;45347;-54
2022/10/09 01:53:18;;;;;;;;;8.00;8.00;;;;;14.10;42.62;101806.13;4960423;28;45335;-53
2022/10/09 01:56:00;;;;;;;;;9.50;8.25;;;;;14.04;42.84;101790.38;4960558;28;45381;-54
2022/10/09 01:58:35;;;;;;;;;8.00;8.00;;;;;14.04;42.67;101803.59;4960278;28;45346;-53
2022/10/09 02:01:14;;;;;;;;;10.00;7.50;;;;;14.03;42.46;101802.69;4971366;28;45321;-53
2022/10/09 02:03:43;;;;;;;;;12.75;9.00;;;;;14.00;43.14;101791.28;4962296;28;45361;-52
2022/10/09 02:06:11;;;;;;;;;9.75;9.75;;;;;13.98;43.04;101796.59;4962181;28;46272;-52
2022/10/09 02:08:38;;;;;;;;;8.25;8.00;;;;;13.95;42.83;101789.56;4963845;28;45282;-50
2022/10/09 02:11:05;;;;;;;;;10.75;9.50;;;;;13.93;43.17;101787.84;4963815;28;45310;-50
2022/10/09 02:13:32;;;;;;;;;9.00;8.25;;;;;13.91;42.78;101779.03;4963705;28;45506;-50
2022/10/09 02:16:19;;;;;;;;;12.50;8.50;;;;;13.88;42.85;101769.38;4963378;28;45404;-53
2022/10/09 02:18:56;;;;;;;;;11.50;9.50;;;;;13.86;43.21;101768.56;4963580;28;45429;-52
2022/10/09 02:21:29;;;;;;;;;10.50;9.50;;;;;13.84;42.96;101767.69;4962191;28;45479;-53
2022/10/09 02:23:57;;;;;;;;;9.75;9.75;;;;;13.81;43.13;101762.41;4963633;28;45329;-51
2022/10/09 02:26:24;;;;;;;;;5.75;5.25;;;;;13.80;43.38;101760.69;4963384;28;46144;-52
2022/10/09 02:28:50;;;;;;;;;10.75;8.75;;;;;13.77;43.04;101766.88;4963375;28;45178;-53
2022/10/09 02:31:24;;;;;;;;;8.25;8.25;;;;;13.76;43.50;101761.59;4962047;28;45285;-53
2022/10/09 02:33:57;;;;;;;;;11.00;9.75;;;;;13.72;43.04;101758.16;4963340;28;45451;-54
2022/10/09 02:36:24;;;;;;;;;11.50;8.75;;;;;13.69;43.44;101758.16;4962980;28;46335;-51
2022/10/09 02:38:49;;;;;;;;;10.50;9.50;;;;;13.68;43.24;101756.41;4963330;28;45341;-52
2022/10/09 02:41:15;;;;;;;;;9.25;9.00;;;;;13.65;43.23;101757.31;4963392;28;45311;-54
2022/10/09 02:43:40;;;;;;;;;11.75;9.25;;;;;13.63;43.11;101759.13;4963151;28;45250;-54
2022/10/09 02:46:05;;;;;;;;;12.75;12.25;;;;;13.61;43.65;101750.31;4963245;28;45223;-54
2022/10/09 02:48:31;;;;;;;;;9.25;9.00;;;;;13.60;43.19;101747.72;4963441;28;45160;-55
2022/10/09 02:50:56;;;;;;;;;8.00;8.00;;;;;13.56;43.67;101740.69;4963342;28;45186;-52
2022/10/09 02:53:21;;;;;;;;;10.50;10.00;;;;;13.54;43.34;101743.34;4978221;28;45511;-51
2022/10/09 02:55:47;;;;;;;;;9.75;9.00;;;;;13.52;43.68;101741.63;4963162;28;46002;-51
2022/10/09 02:58:12;;;;;;;;;12.00;10.75;;;;;13.49;43.63;101735.47;4962878;28;45224;-52
2022/10/09 03:00:38;;;;;;;;;10.25;8.50;;;;;13.47;43.69;101741.66;4971165;28;45235;-54
2022/10/09 03:03:03;;;;;;;;;11.00;10.00;;;;;13.44;43.70;101739.94;4967549;28;45405;-53
2022/10/09 03:05:29;;;;;;;;;9.25;9.25;;;;;13.43;43.58;101745.22;4962763;28;45519;-51
2022/10/09 03:07:54;;;;;;;;;11.75;10.75;;;;;13.41;43.85;101733.78;4962861;28;45334;-54
2022/10/09 03:10:20;;;;;;;;;12.75;10.25;;;;;13.40;43.56;101727.66;4963133;28;45455;-54
2022/10/09 03:12:46;;;;;;;;;8.00;8.00;;;;;13.37;43.78;101724.13;4962808;28;45314;-53
2022/10/09 03:15:11;;;;;;;;;10.25;9.50;;;;;13.35;43.87;101725.94;4961205;28;47128;-53
2022/10/09 03:17:37;;;;;;;;;11.75;9.75;;;;;13.32;43.61;101722.44;4962486;28;45315;-53
2022/10/09 03:20:03;;;;;;;;;10.00;9.00;;;;;13.29;43.84;101725.06;4962886;28;45362;-54
2022/10/09 03:22:28;;;;;;;;;13.00;11.00;;;;;13.25;43.67;101718.09;4962618;28;45490;-52
2022/10/09 03:24:54;;;;;;;;;12.25;10.00;;;;;13.25;43.88;101719.88;4977497;28;46492;-54
2022/10/09 03:27:19;;;;;;;;;12.50;10.25;;;;;13.20;43.76;101713.75;4962440;28;45257;-53
2022/10/09 03:29:45;;;;;;;;;15.00;10.00;;;;;13.21;43.87;101719.03;4962740;28;45452;-53
2022/10/09 03:32:10;;;;;;;;;8.25;8.25;;;;;13.19;44.09;101712.88;4962228;28;45269;-57
2022/10/09 03:34:35;;;;;;;;;8.00;8.00;;;;;13.14;43.88;101707.66;4962653;28;45909;-50
2022/10/09 03:37:01;;;;;;;;;13.75;11.00;;;;;13.13;44.05;101708.53;4958135;28;45363;-55
2022/10/09 03:39:26;;;;;;;;;13.50;10.25;;;;;13.11;43.80;101710.31;4962640;28;45239;-54
2022/10/09 03:41:51;;;;;;;;;9.25;9.25;;;;;13.09;44.09;101711.22;4962303;28;45583;-55
2022/10/09 03:44:17;;;;;;;;;9.50;8.50;;;;;13.08;43.93;101709.47;4962468;28;45208;-51
2022/10/09 03:46:42;;;;;;;;;9.25;8.25;;;;;13.05;43.85;101701.59;4961983;28;45354;-50
2022/10/09 03:49:08;;;;;;;;;9.50;8.75;;;;;13.04;44.13;101702.47;4962640;28;45197;-54
2022/10/09 03:51:33;;;;;;;;;10.50;8.75;;;;;12.96;43.89;101692.84;4961033;28;45518;-53
2022/10/09 03:53:58;;;;;;;;;9.00;8.75;;;;;12.98;44.32;101696.34;4962448;28;46283;-54
2022/10/09 03:56:24;;;;;;;;;11.50;10.75;;;;;12.96;44.08;101702.53;4977097;28;45235;-54
2022/10/09 03:58:49;;;;;;;;;12.25;7.00;;;;;12.93;44.24;101700.81;4962177;28;45338;-54
2022/10/09 04:01:14;;;;;;;;;8.00;6.50;;;;;12.92;44.12;101699.06;4962335;28;45305;-53
2022/10/09 04:03:39;;;;;;;;;10.00;9.00;;;;;12.90;44.48;101692.03;4961974;28;46156;-53
2022/10/09 04:06:05;;;;;;;;;8.25;7.25;;;;;12.88;44.23;101689.41;4961899;28;45333;-52
2022/10/09 04:08:30;;;;;;;;;11.00;9.00;;;;;12.83;44.25;101686.81;4962230;28;45267;-54
2022/10/09 04:10:59;;;;;;;;;9.00;9.00;;;;;12.84;44.36;101690.31;4962303;28;45310;-54
2022/10/09 04:13:24;;;;;;;;;9.00;8.75;;;;;12.82;44.22;101686.84;4961646;28;46323;-54
2022/10/09 04:15:50;;;;;;;;;4.75;4.75;;;;;12.80;44.44;101697.41;4961908;28;45374;-54
2022/10/09 04:18:16;;;;;;;;;9.50;8.50;;;;;12.77;44.26;101691.28;4960577;28;45473;-54
2022/10/09 04:20:55;;;;;;;;;11.75;8.00;;;;;12.76;44.38;101694.78;4961693;28;45260;-53
2022/10/09 04:23:23;;;;;;;;;8.50;8.50;;;;;12.74;44.69;101701.84;4961790;28;46126;-52
2022/10/09 04:25:52;;;;;;;;;8.50;7.50;;;;;12.70;44.55;101690.44;4961033;28;45238;-52
2022/10/09 04:28:18;;;;;;;;;7.00;7.00;;;;;12.69;44.43;101686.03;4961736;28;45381;-53
2022/10/09 04:30:43;;;;;;;;;9.00;7.75;;;;;12.66;44.62;101684.28;4960195;28;45455;-53
2022/10/09 04:33:08;;;;;;;;;7.50;7.50;;;;;12.63;44.37;101681.69;4961530;28;45330;-53
2022/10/09 04:35:34;;;;;;;;;9.50;8.75;;;;;12.62;44.53;101679.94;4961343;28;45274;-54
2022/10/09 04:37:59;;;;;;;;;6.00;5.00;;;;;12.61;44.72;101683.47;4961956;28;45271;-54
2022/10/09 04:40:24;;;;;;;;;7.50;7.50;;;;;12.56;44.59;101672.06;4961451;28;45422;-53
2022/10/09 04:42:50;;;;;;;;;5.25;5.25;;;;;12.57;44.54;101673.84;4961354;28;46091;-53
2022/10/09 04:45:15;;;;;;;;;7.00;6.50;;;;;12.56;44.58;101680.00;4961293;28;45498;-53
2022/10/09 04:47:40;;;;;;;;;6.00;5.00;;;;;12.54;44.69;101676.50;4960239;28;45443;-54
2022/10/09 04:50:06;;;;;;;;;7.75;5.50;;;;;12.51;44.65;101674.78;4961428;28;45293;-53
2022/10/09 04:52:32;;;;;;;;;8.50;6.00;;;;;12.52;44.65;101679.13;4961377;28;47149;-54
2022/10/09 04:54:57;;;;;;;;;5.75;5.75;;;;;12.51;44.81;101668.59;4961287;28;45308;-53
2022/10/09 04:57:23;;;;;;;;;7.00;5.50;;;;;12.48;44.85;101677.41;4961451;28;45398;-52
2022/10/09 04:59:48;;;;;;;;;8.25;7.00;;;;;12.45;44.75;101666.00;4961153;28;45222;-52
2022/10/09 05:02:13;;;;;;;;;7.50;7.25;;;;;12.47;44.49;101674.78;4960850;28;46454;-55
2022/10/09 05:04:39;;;;;;;;;11.50;8.50;;;;;12.45;44.80;101679.19;4961090;28;45185;-53
2022/10/09 05:07:04;;;;;;;;;7.25;6.50;;;;;12.40;44.94;101659.91;4961140;28;45243;-52
2022/10/09 05:09:29;;;;;;;;;10.50;8.75;;;;;12.42;44.87;101664.28;4961160;28;45412;-54
2022/10/09 05:11:55;;;;;;;;;9.50;9.00;;;;;12.40;44.88;101663.44;4961106;28;46421;-54
2022/10/09 05:14:20;;;;;;;;;10.50;7.75;;;;;12.37;44.75;101657.31;4959609;28;45255;-52
2022/10/09 05:16:50;;;;;;;;;8.25;7.25;;;;;12.33;44.68;101656.44;4961005;28;45493;-53
2022/10/09 05:19:16;;;;;;;;;12.00;8.75;;;;;12.33;45.04;101657.31;4960959;28;45355;-54
2022/10/09 05:21:41;;;;;;;;;6.50;6.50;;;;;12.31;44.95;101651.19;4960729;28;46013;-55
2022/10/09 05:24:06;;;;;;;;;7.00;5.00;;;;;12.30;44.95;101657.34;4960861;28;45267;-54
2022/10/09 05:26:32;;;;;;;;;7.25;7.25;;;;;12.29;45.04;101658.22;4961277;28;45384;-53
2022/10/09 05:28:57;;;;;;;;;3.50;3.25;;;;;12.26;45.08;101652.09;4960716;28;45275;-57
2022/10/09 05:31:25;;;;;;;;;7.50;7.50;;;;;12.24;45.31;101648.56;4960610;28;47147;-56
2022/10/09 05:33:51;;;;;;;;;7.75;6.00;;;;;12.23;44.85;101644.22;4960838;28;45229;-53
2022/10/09 05:36:17;;;;;;;;;7.25;6.75;;;;;12.21;45.03;101640.72;4960729;28;45230;-53
2022/10/09 05:38:43;;;;;;;;;8.00;6.00;;;;;12.21;44.99;101638.94;4962540;28;45549;-52
2022/10/09 05:41:14;;;;;;;;;8.00;6.25;;;;;12.21;45.07;101638.94;4964129;28;45331;-53
2022/10/09 05:43:41;;;;;;;;;6.50;6.50;;;;;12.20;45.25;101637.22;4964161;28;45312;-52
2022/10/09 05:46:16;;;;;;;;;9.00;8.00;;;;;12.19;45.24;101635.47;4963969;28;45255;-50
2022/10/09 05:48:44;;;;;;;;;8.50;6.00;;;;;12.17;45.03;101631.94;4963990;28;45383;-53
2022/10/09 05:51:16;;;;;;;;;7.75;5.75;;;;;12.17;45.24;101639.84;4963967;28;45271;-53
2022/10/09 05:53:44;;;;;;;;;7.00;6.00;;;;;12.15;45.30;101636.34;4963984;28;45239;-54
2022/10/09 05:56:13;;;;;;;;;7.50;7.50;;;;;12.14;45.25;101634.63;4964160;28;45380;-55
2022/10/09 05:58:39;;;;;;;;;5.75;5.50;;;;;12.12;45.20;101629.31;4963814;28;45283;-53
2022/10/09 06:01:04;;;;;;;;;10.75;8.50;;;;;12.14;45.21;101642.53;4964119;28;46168;-54
2022/10/09 06:03:30;;;;;;;;;9.75;8.50;;;;;12.11;45.18;101635.50;4963775;28;45373;-53
2022/10/09 06:06:04;;;;;;;;;4.00;4.00;;;;;12.12;45.26;101639.00;4963892;28;45443;-53
2022/10/09 06:08:34;;;;;;;;;9.00;8.75;;;;;12.08;45.23;101632.88;4963852;28;45401;-53
2022/10/09 06:11:14;;;;;;;;;12.75;7.25;;;;;12.09;45.30;101636.38;4963734;28;45370;-55
2022/10/09 06:13:40;;;;;;;;;10.00;8.00;;;;;12.08;45.35;101629.38;4963698;28;45318;-54
2022/10/09 06:16:06;;;;;;;;;8.75;7.75;;;;;12.07;45.28;101641.66;4963514;28;45300;-54
2022/10/09 06:18:32;;;;;;;;;9.00;7.75;;;;;12.05;45.37;101634.66;4963759;28;45231;-54
2022/10/09 06:20:59;;;;;;;;;9.75;9.00;;;;;12.05;45.38;101637.28;4963300;28;46234;-52
2022/10/09 06:23:25;;;;;;;;;11.50;9.50;;;;;12.03;45.42;101634.66;4963805;28;45326;-54
2022/10/09 06:25:51;;;;;;;;;12.25;8.75;;;;;12.00;45.54;101624.16;4963631;28;45309;-53
2022/10/09 06:28:17;;;;;;;;;8.50;7.50;;;;;12.01;45.69;101634.69;4963606;28;45318;-52
2022/10/09 06:30:42;;;;;;;;;11.25;9.00;;;;;11.98;45.41;101629.41;4963323;28;45343;-54
2022/10/09 06:33:07;;;;;;;;;10.00;7.50;;;;;11.98;45.68;101620.66;4963398;28;45334;-53
2022/10/09 06:35:33;;;;;;;;;11.25;11.00;;;;;11.99;45.61;101622.41;4963326;28;45407;-55
2022/10/09 06:37:59;;;;;;;;;9.50;8.75;;;;;11.98;45.82;101624.16;4963548;28;45412;-54
2022/10/09 06:40:24;;;;;;;;;16.00;13.00;;;;;11.97;45.67;101630.28;4963179;28;46032;-54
2022/10/09 06:42:49;;;;;;;;;50.25;40.50;;;;;11.98;45.43;101632.06;4963305;28;45244;-53
2022/10/09 06:45:14;;;;;;;;;12.00;9.50;;;;;11.97;45.56;101625.03;4963423;28;45155;-53
2022/10/09 06:47:40;;;;;;;;;7.50;7.50;;;;;11.97;45.69;101638.19;4963180;28;45411;-54
2022/10/09 06:50:06;;;;;;;;;9.00;9.00;;;;;11.97;45.68;101630.28;4962678;28;45362;-53
2022/10/09 06:52:31;;;;;;;;;10.75;8.00;;;;;11.98;45.87;101631.19;4963267;28;45250;-50
2022/10/09 06:54:56;;;;;;;;;8.25;8.25;;;;;11.94;45.74;101626.81;4963123;28;45296;-48
2022/10/09 06:57:22;;;;;;;;;10.25;8.50;;;;;11.97;45.72;101630.28;4963119;28;45296;-53
2022/10/09 06:59:49;;;;;;;;;7.00;7.00;;;;;11.96;45.62;101633.84;4962765;28;47252;-52
2022/10/09 07:02:14;;;;;;;;;10.50;8.25;;;;;11.97;45.73;101624.16;4974014;28;45421;-52
2022/10/09 07:04:39;;;;;;;;;9.00;9.00;;;;;11.98;45.76;101624.16;4962984;28;45327;-49
2022/10/09 07:07:05;;;;;;;;;10.00;9.50;;;;;11.99;45.77;101627.69;4962738;28;45279;-52
2022/10/09 07:09:30;;;;;;;;;7.00;7.00;;;;;11.98;45.69;101613.59;4962837;28;45515;-54
2022/10/09 07:11:55;;;;;;;;;9.00;9.00;;;;;11.97;45.95;101616.25;4963090;28;45374;-54
2022/10/09 07:14:21;;;;;;;;;8.25;8.25;;;;;12.00;45.78;101613.63;4977818;28;45290;-49
2022/10/09 07:16:47;;;;;;;;;8.00;8.00;;;;;12.02;46.06;101614.47;4977673;28;45453;-54
2022/10/09 07:19:16;;;;;;;;;10.75;10.50;;;;;11.99;45.77;101610.09;4962733;28;46302;-49
2022/10/09 07:21:43;;;;;;;;;8.25;8.25;;;;;12.03;45.85;101619.72;4962665;28;45239;-49
2022/10/09 07:24:09;;;;;;;;;8.75;7.00;;;;;12.06;45.93;101612.69;4962408;28;45355;-54
2022/10/09 07:26:37;;;;;;;;;10.00;9.25;;;;;12.06;45.95;101607.44;4962264;28;45501;-53
2022/10/09 07:29:04;;;;;;;;;13.00;9.25;;;;;12.07;45.83;101610.03;4962223;28;45503;-53
2022/10/09 07:31:29;;;;;;;;;8.75;8.75;;;;;12.09;45.90;101599.50;4961141;28;45280;-52
2022/10/09 07:33:55;;;;;;;;;10.25;9.25;;;;;12.12;45.96;101604.75;4962532;28;45450;-50
2022/10/09 07:36:22;;;;;;;;;9.00;7.00;;;;;12.12;46.05;101602.13;4962224;28;45354;-52
2022/10/09 07:38:55;;;;;;;;;8.00;8.00;;;;;12.14;45.90;101598.59;4962316;28;45344;-51
2022/10/09 07:41:23;;;;;;;;;10.75;9.00;;;;;12.18;46.04;101600.31;4962273;28;45185;-50
2022/10/09 07:43:48;;;;;;;;;11.75;9.00;;;;;12.21;46.04;101606.44;4962221;28;45476;-52
2022/10/09 07:46:16;;;;;;;;;10.75;8.75;;;;;12.24;45.96;101601.16;4962111;28;45290;-50
2022/10/09 07:48:41;;;;;;;;;10.00;8.00;;;;;12.26;46.05;101594.13;4962206;28;46043;-53
2022/10/09 07:51:07;;;;;;;;;9.50;7.75;;;;;12.30;46.14;101601.09;4962108;28;45388;-53
2022/10/09 07:53:32;;;;;;;;;9.00;8.00;;;;;12.33;46.11;101593.19;4962101;28;45264;-53
2022/10/09 07:55:57;;;;;;;;;8.00;7.00;;;;;12.35;46.04;101594.94;4962247;28;45433;-53
2022/10/09 07:58:24;;;;;;;;;24.00;19.00;;;;;12.41;45.98;101598.38;4961977;28;45351;-54
2022/10/09 08:00:49;;;;;;;;;15.25;15.00;;;;;12.45;46.28;101600.09;4961055;28;45234;-54
2022/10/09 08:03:14;;;;;;;;;7.75;7.75;;;;;12.50;46.26;101604.47;4962279;28;45299;-53
2022/10/09 08:05:40;;;;;;;;;10.25;6.50;;;;;12.55;45.98;101596.50;4962056;28;45239;-53
2022/10/09 08:08:05;;;;;;;;;8.00;7.00;;;;;12.60;46.07;101594.72;4961890;28;46273;-53
2022/10/09 08:10:31;;;;;;;;;7.00;6.25;;;;;12.61;46.38;101585.91;4962275;28;45205;-53
2022/10/09 08:12:56;;;;;;;;;9.00;6.25;;;;;12.73;46.12;101594.59;4961891;28;45248;-52
2022/10/09 08:15:21;;;;;;;;;6.50;6.50;;;;;12.74;46.35;101583.16;4962086;28;45305;-53
2022/10/09 08:17:47;;;;;;;;;10.25;6.75;;;;;12.86;46.20;101590.94;4961530;28;45319;-55
2022/10/09 08:20:12;;;;;;;;;6.00;6.00;;;;;12.89;46.02;101584.75;4961740;28;45311;-54
2022/10/09 08:22:38;;;;;;;;;7.50;6.00;;;;;12.97;46.32;101577.66;4960601;28;45753;-54
2022/10/09 08:25:04;;;;;;;;;9.75;8.00;;;;;13.07;46.40;101578.41;4960602;28;45713;-53
2022/10/09 08:27:29;;;;;;;;;7.00;5.75;;;;;13.15;46.32;101581.84;4961417;28;46332;-55
2022/10/09 08:29:54;;;;;;;;;9.75;6.00;;;;;13.22;46.36;101577.34;4961733;28;45351;-54
2022/10/09 08:32:19;;;;;;;;;7.50;6.00;;;;;13.30;46.08;101578.16;4961569;28;45381;-55
2022/10/09 08:34:45;;;;;;;;;7.50;6.00;;;;;13.37;46.53;101573.66;4961581;28;45407;-53
2022/10/09 08:37:11;;;;;;;;;7.75;7.50;;;;;13.44;46.41;101573.59;4961260;28;45974;-53
2022/10/09 08:39:36;;;;;;;;;6.75;6.25;;;;;13.54;46.26;101571.72;4961618;28;45310;-55
2022/10/09 08:42:02;;;;;;;;;8.75;7.00;;;;;13.63;46.23;101565.44;4961529;28;45270;-54
2022/10/09 08:44:37;;;;;;;;;7.50;7.25;;;;;13.71;46.26;101560.94;4961477;28;45499;-55
2022/10/09 08:47:08;;;;;;;;;9.50;6.00;;;;;13.80;46.49;101560.78;4961117;28;46367;-55
2022/10/09 08:49:56;;;;;;;;;6.00;6.00;;;;;13.91;46.60;101559.75;4961398;28;45361;-54
2022/10/09 08:52:37;;;;;;;;;6.50;5.50;;;;;14.04;46.31;101563.09;4961321;28;45353;-52
2022/10/09 08:55:12;;;;;;;;;5.00;5.00;;;;;14.14;46.66;101554.13;4961076;28;45239;-55
2022/10/09 08:57:38;;;;;;;;;3.75;3.75;;;;;14.25;46.47;101548.63;4961120;28;46073;-55
2022/10/09 09:00:20;;;;;;;;;5.25;4.25;;;;;14.38;46.22;101549.31;4961370;28;45349;-55
2022/10/09 09:02:54;;;;;;;;;6.50;5.00;;;;;14.52;46.19;101546.44;4959798;28;45431;-55
2022/10/09 09:05:25;;;;;;;;;6.75;5.75;;;;;14.62;46.64;101540.06;4960789;28;45583;-55
2022/10/09 09:08:15;;;;;;;;;5.00;5.00;;;;;14.76;46.25;101531.91;4960743;28;46172;-54
2022/10/09 09:11:14;;;;;;;;;4.75;4.00;;;;;14.90;46.28;101535.16;4961098;28;45333;-54
2022/10/09 09:13:52;;;;;;;;;7.00;6.00;;;;;15.04;46.47;101526.06;4952451;28;45379;-54
2022/10/09 09:16:29;;;;;;;;;7.75;6.00;;;;;15.14;46.21;101524.97;4960715;28;45443;-52
2022/10/09 09:19:01;;;;;;;;;7.25;5.50;;;;;15.29;46.67;101515.84;4960939;28;46179;-54
2022/10/09 09:21:43;;;;;;;;;10.50;9.00;;;;;15.42;46.18;101511.13;4960816;28;45255;-56
2022/10/09 09:24:16;;;;;;;;;4.00;3.75;;;;;15.56;46.30;101513.50;4959569;28;45524;-52
2022/10/09 09:26:46;;;;;;;;;7.00;5.75;;;;;15.69;46.38;101509.63;4959639;28;45447;-55
2022/10/09 09:29:14;;;;;;;;;9.50;6.00;;;;;15.81;46.19;101508.50;4960509;28;46340;-55
2022/10/09 09:31:41;;;;;;;;;6.50;4.50;;;;;15.95;46.07;101504.66;4960668;28;45307;-55
2022/10/09 09:34:35;;;;;;;;;3.50;3.50;;;;;16.08;45.92;101500.81;4960751;28;45259;-55
2022/10/09 09:37:00;;;;;;;;;5.75;4.50;;;;;16.23;45.97;101496.91;4958981;28;46077;-52
2022/10/09 09:39:28;;;;;;;;;8.00;7.50;;;;;16.35;45.85;101485.06;4960632;28;46282;-55
2022/10/09 09:42:20;;;;;;;;;9.75;6.00;;;;;16.50;46.25;101491.75;4960629;28;45275;-55
2022/10/09 09:45:00;;;;;;;;;6.00;4.00;;;;;16.63;46.12;101484.31;4958763;28;45358;-56
2022/10/09 09:47:34;;;;;;;;;5.25;5.00;;;;;16.76;45.92;101476.91;4960342;28;45723;-55
2022/10/09 09:50:03;;;;;;;;;7.50;6.00;;;;;16.89;45.93;101480.94;4960447;28;46208;-54
2022/10/09 09:52:35;;;;;;;;;6.00;4.00;;;;;17.02;45.84;101469.09;4960600;28;45338;-53
2022/10/09 09:55:01;;;;;;;;;3.50;3.00;;;;;17.16;45.93;101478.44;4960541;28;45533;-55
2022/10/09 09:57:36;;;;;;;;;5.50;4.75;;;;;17.28;45.79;101470.09;4959136;28;45395;-53
2022/10/09 10:00:17;;;;;;;;;5.75;4.50;;;;;17.42;45.72;101468.78;4963207;28;46457;-53
2022/10/09 10:02:42;;;;;;;;;4.00;4.00;;;;;17.54;45.64;101455.97;4968177;28;45167;-53
2022/10/09 10:05:25;;;;;;;;;3.00;3.00;;;;;17.67;45.73;101464.44;4960254;28;45465;-53
2022/10/09 10:07:51;;;;;;;;;5.00;5.00;;;;;17.80;45.53;101462.25;4960333;28;45398;-52
2022/10/09 10:10:26;;;;;;;;;8.00;4.75;;;;;17.92;45.39;101449.47;4959068;28;46025;-54
2022/10/09 10:12:51;;;;;;;;;4.25;3.00;;;;;18.06;45.87;101455.19;4960072;28;45494;-53
2022/10/09 10:15:23;;;;;;;;;5.75;5.75;;;;;18.17;45.32;101446.84;4960586;28;45413;-55
2022/10/09 10:17:57;;;;;;;;;3.75;3.75;;;;;18.26;45.29;101437.69;4960168;28;45182;-52
2022/10/09 10:20:22;;;;;;;;;5.50;5.50;;;;;18.41;45.01;101433.63;4960069;28;46762;-55
2022/10/09 10:22:53;;;;;;;;;6.75;5.75;;;;;18.52;44.87;101434.09;4958845;28;45639;-54
2022/10/09 10:25:23;;;;;;;;;4.00;4.00;;;;;18.63;44.87;101426.59;4963027;28;45475;-54
2022/10/09 10:27:54;;;;;;;;;5.00;5.00;;;;;18.70;45.07;101411.25;4963549;28;45457;-53
2022/10/09 10:30:20;;;;;;;;;4.25;4.25;;;;;18.86;45.04;101414.19;4963583;28;45371;-53
2022/10/09 10:32:48;;;;;;;;;3.50;3.50;;;;;18.98;44.77;101415.53;4963100;28;45317;-54
2022/10/09 10:35:22;;;;;;;;;8.00;6.25;;;;;19.12;45.05;101412.38;4963479;28;45251;-55
2022/10/09 10:38:09;;;;;;;;;4.75;4.25;;;;;19.26;44.83;101409.16;4963524;28;45306;-53
2022/10/09 10:40:41;;;;;;;;;5.00;5.00;;;;;19.39;44.51;101402.38;4963175;28;45246;-52
2022/10/09 10:43:09;;;;;;;;;3.50;3.50;;;;;19.53;44.71;101407.13;4963298;28;45406;-55
2022/10/09 10:45:57;;;;;;;;;4.00;3.00;;;;;19.68;44.84;101404.78;4963353;28;45518;-55
2022/10/09 10:48:35;;;;;;;;;3.50;3.00;;;;;19.83;44.56;101401.47;4963343;28;45278;-55
2022/10/09 10:51:09;;;;;;;;;2.75;2.00;;;;;19.97;44.54;101396.44;4963331;28;46207;-55
2022/10/09 10:54:03;;;;;;;;;5.00;2.75;;;;;20.16;44.65;101392.09;4963164;28;45363;-54
2022/10/09 10:56:36;;;;;;;;;5.00;3.75;;;;;20.30;44.56;101385.22;4963304;28;45426;-56
2022/10/09 10:59:23;;;;;;;;;3.50;3.50;;;;;20.51;44.18;101379.81;4961862;28;46027;-55
2022/10/09 11:02:22;;;;;;;;;6.75;4.25;;;;;20.70;44.47;101374.47;4962756;28;45460;-56
2022/10/09 11:05:12;;;;;;;;;2.50;2.50;;;;;20.92;43.72;101373.53;4961560;28;45244;-56
2022/10/09 11:07:49;;;;;;;;;4.50;4.50;;;;;21.11;43.60;101369.00;4961903;28;45265;-56
2022/10/09 11:10:27;;;;;;;;;4.25;3.00;;;;;21.33;43.84;101367.09;4963251;28;45433;-55
2022/10/09 11:13:17;;;;;;;;;3.00;3.00;;;;;21.51;44.13;101358.16;4962579;28;45357;-55
2022/10/09 11:16:05;;;;;;;;;3.50;2.00;;;;;21.71;43.43;101349.16;4977511;28;45268;-55
2022/10/09 11:19:04;;;;;;;;;3.00;3.00;;;;;21.94;43.53;101349.78;4957366;28;45262;-55
2022/10/09 11:21:53;;;;;;;;;2.50;2.25;;;;;22.18;43.49;101341.38;4962658;28;45559;-53
2022/10/09 11:24:37;;;;;;;;;4.00;3.50;;;;;22.43;43.38;101340.06;4962764;28;45314;-54
2022/10/09 11:27:02;;;;;;;;;4.00;4.00;;;;;22.67;43.54;101341.41;4962787;28;45282;-52
2022/10/09 11:29:38;;;;;;;;;4.50;4.25;;;;;22.90;43.16;101336.56;4962490;28;45512;-53
2022/10/09 11:32:22;;;;;;;;;4.00;4.00;;;;;23.14;43.38;101336.09;4962394;28;45358;-53